Terminal Aerodrome Forecast
Issued by NWS

Home | Current Version | Previous Version | Text Only | Print | Product List | Glossary On
Versions: 1 2 3 4 5 6 7 8 9 10 11 12 13 14 15 16
000
FTUS46 KMTR 051100 RRA
TAFMRY
TAF
KMRY 051208Z 0512/0612 23005KT P6SM OVC016
     FM052200 26015G20KT P6SM SCT020
     FM060200 24010KT P6SM OVC015=

USA.gov is the U.S. government's official web portal to all federal, state and local government web resources and services.